Time;durP1;ratioP1;P1;durP2;ratioP2;P2;SDS_P1;SDS_P2;PMS_P1;PMS_P2;Temp;Humidity;BMP_temperature;BMP_pressure;BME280_temperature;BME280_humidity;BME280_pressure;Samples;Min_cycle;Max_cycle;Signal;HPM_P1;HPM_P2
2022/12/16 00:00:08;;;;;;;24.17;11.97;;;;;;;-6.13;100.00;100383.38;6219761;23;20018;-80
2022/12/16 00:02:36;;;;;;;22.67;12.47;;;;;;;-6.17;100.00;100379.78;6214469;23;20016;-79
2022/12/16 00:05:04;;;;;;;22.60;12.23;;;;;;;-6.20;100.00;100382.19;6216244;23;20047;-80
2022/12/16 00:07:31;;;;;;;19.93;11.90;;;;;;;-6.23;100.00;100376.91;6214117;23;20008;-79
2022/12/16 00:09:57;;;;;;;21.10;12.50;;;;;;;-6.24;100.00;100375.19;6213370;23;20428;-80
2022/12/16 00:12:24;;;;;;;20.13;11.70;;;;;;;-6.27;100.00;100375.88;6210953;23;20039;-80
2022/12/16 00:14:51;;;;;;;17.27;11.23;;;;;;;-6.28;100.00;100366.50;6215647;23;20115;-79
2022/12/16 00:17:18;;;;;;;17.57;10.70;;;;;;;-6.28;100.00;100371.59;6189778;23;20320;-79
2022/12/16 00:19:44;;;;;;;25.00;12.83;;;;;;;-6.28;100.00;100368.13;6215854;23;20004;-80
2022/12/16 00:22:11;;;;;;;20.50;10.93;;;;;;;-6.31;100.00;100373.94;6215531;23;20296;-79
2022/12/16 00:24:37;;;;;;;20.80;11.00;;;;;;;-6.33;100.00;100376.41;6218376;23;20095;-80
2022/12/16 00:27:04;;;;;;;21.40;10.70;;;;;;;-6.35;100.00;100380.56;6189841;23;20687;-80
2022/12/16 00:29:30;;;;;;;24.37;12.70;;;;;;;-6.36;100.00;100375.34;6215522;23;20040;-79
2022/12/16 00:31:57;;;;;;;19.43;10.57;;;;;;;-6.38;100.00;100377.81;6211332;23;20012;-80
2022/12/16 00:34:24;;;;;;;24.63;12.03;;;;;;;-6.37;100.00;100381.28;6213772;23;20023;-80
2022/12/16 00:36:51;;;;;;;20.10;12.50;;;;;;;-6.41;100.00;100372.56;6213119;23;20820;-79
2022/12/16 00:39:18;;;;;;;21.60;12.23;;;;;;;-6.41;100.00;100374.22;6212257;23;20044;-80
2022/12/16 00:41:46;;;;;;;20.47;12.17;;;;;;;-6.41;100.00;100375.13;6237696;23;20312;-80
2022/12/16 00:44:13;;;;;;;21.33;12.27;;;;;;;-6.43;100.00;100374.16;6213417;23;20012;-80
2022/12/16 00:46:40;;;;;;;21.07;12.13;;;;;;;-6.45;100.00;100377.41;6188272;23;20026;-80
2022/12/16 00:49:06;;;;;;;21.77;12.40;;;;;;;-6.48;100.00;100385.75;6239295;23;20355;-77
2022/12/16 00:51:33;;;;;;;25.00;13.10;;;;;;;-6.47;100.00;100391.75;6208412;23;20027;-78
2022/12/16 00:53:59;;;;;;;20.50;12.47;;;;;;;-6.53;100.00;100385.53;6211390;23;20016;-78
2022/12/16 00:56:26;;;;;;;20.13;12.60;;;;;;;-6.57;100.00;100387.78;6210713;23;20020;-78
2022/12/16 00:58:53;;;;;;;18.33;11.30;;;;;;;-6.58;100.00;100386.03;6212147;23;20395;-77
2022/12/16 01:01:19;;;;;;;18.53;11.67;;;;;;;-6.61;100.00;100390.97;6235791;23;20027;-78
2022/12/16 01:03:46;;;;;;;24.07;13.40;;;;;;;-6.65;100.00;100398.44;6212140;23;20028;-77
2022/12/16 01:06:17;;;;;;;26.93;12.77;;;;;;;-6.65;100.00;100403.53;6238581;23;20021;-78
2022/12/16 01:08:47;;;;;;;24.60;12.03;;;;;;;-6.68;100.00;100393.16;6208947;23;20105;-78
2022/12/16 01:11:16;;;;;;;19.80;11.93;;;;;;;-6.70;100.00;100397.31;6209840;23;20012;-78
2022/12/16 01:13:43;;;;;;;24.87;12.93;;;;;;;-6.73;100.00;100398.81;6184930;23;20419;-79
2022/12/16 01:16:10;;;;;;;20.93;11.90;;;;;;;-6.76;100.00;100396.97;6208877;23;20020;-78
2022/12/16 01:18:37;;;;;;;21.47;11.77;;;;;;;-6.76;100.00;100396.97;6209796;23;20050;-78
2022/12/16 01:21:06;;;;;;;25.03;13.97;;;;;;;-6.79;100.00;100406.97;6207759;23;20023;-78
2022/12/16 01:23:33;;;;;;;21.93;13.23;;;;;;;-6.80;100.00;100402.66;6211214;23;20877;-78
2022/12/16 01:26:01;;;;;;;22.93;12.40;;;;;;;-6.83;100.00;100420.28;6211514;23;20016;-80
2022/12/16 01:28:29;;;;;;;21.40;12.13;;;;;;;-6.86;100.00;100404.84;6184880;23;20111;-78
2022/12/16 01:31:00;;;;;;;21.40;12.63;;;;;;;-6.87;100.00;100419.25;6207701;23;20064;-79
2022/12/16 01:33:29;;;;;;;22.80;12.40;;;;;;;-6.89;100.00;100422.50;6184344;23;20043;-78
2022/12/16 01:36:04;;;;;;;21.67;12.27;;;;;;;-6.94;100.00;100427.31;6208851;23;20112;-78
2022/12/16 01:38:31;;;;;;;26.43;13.70;;;;;;;-6.94;100.00;100431.53;6209102;23;20023;-77
2022/12/16 01:40:59;;;;;;;21.80;13.27;;;;;;;-6.98;100.00;100427.94;6207754;23;20058;-77
2022/12/16 01:43:35;;;;;;;21.57;12.90;;;;;;;-7.00;100.00;100429.50;6210557;23;20028;-78
2022/12/16 01:46:16;;;;;;;20.30;12.33;;;;;;;-7.04;100.00;100422.50;6212596;23;20016;-78
2022/12/16 01:48:50;;;;;;;19.10;12.30;;;;;;;-7.04;100.00;100419.94;6214122;23;20424;-78
2022/12/16 01:51:22;;;;;;;22.47;12.40;;;;;;;-7.05;100.00;100429.25;6212616;23;20024;-78
2022/12/16 01:53:57;;;;;;;22.13;13.10;;;;;;;-7.05;100.00;100428.34;6212896;23;20039;-78
2022/12/16 01:56:28;;;;;;;24.93;13.33;;;;;;;-7.04;100.00;100430.13;6213203;23;20020;-78
2022/12/16 01:58:56;;;;;;;23.13;13.87;;;;;;;-7.06;100.00;100430.03;6214477;23;20015;-78
2022/12/16 02:01:23;;;;;;;26.67;12.67;;;;;;;-7.07;100.00;100432.50;6214070;23;20018;-79
2022/12/16 02:03:52;;;;;;;22.87;11.53;;;;;;;-7.05;100.00;100431.78;6217235;23;20008;-78
2022/12/16 02:06:19;;;;;;;22.93;12.40;;;;;;;-7.06;100.00;100436.81;6217998;23;20016;-78
2022/12/16 02:08:54;;;;;;;28.80;12.13;;;;;;;-7.07;100.00;100422.31;6217775;23;20027;-77
2022/12/16 02:12:06;;;;;;;24.90;11.87;;;;;;;-7.08;100.00;100423.97;6217661;23;20142;-78
2022/12/16 02:15:03;;;;;;;23.20;12.57;;;;;;;-7.08;100.00;100423.09;6217594;23;20022;-79
2022/12/16 02:17:56;;;;;;;22.87;11.07;;;;;;;-7.08;100.00;100418.88;6216693;23;20096;-78
2022/12/16 02:20:58;;;;;;;19.23;10.17;;;;;;;-7.06;100.00;100426.63;6214265;23;20331;-79
2022/12/16 02:23:57;;;;;;;23.97;12.37;;;;;;;-7.08;100.00;100418.88;6189431;23;20104;-79
2022/12/16 02:26:54;;;;;;;19.23;11.43;;;;;;;-7.09;100.00;100423.88;6243499;22;20031;-79
2022/12/16 02:30:06;;;;;;;19.93;11.70;;;;;;;-7.10;100.00;100435.75;6238348;23;20051;-78
2022/12/16 02:33:15;;;;;;;20.67;11.37;;;;;;;-7.11;100.00;100425.47;6258231;23;20074;-78
2022/12/16 02:36:03;;;;;;;19.90;12.10;;;;;;;-7.15;100.00;100425.28;6241822;22;20032;-78
2022/12/16 02:38:44;;;;;;;25.87;11.63;;;;;;;-7.12;100.00;100433.91;6216795;23;20016;-79
2022/12/16 02:41:37;;;;;;;21.80;10.97;;;;;;;-7.13;100.00;100432.13;6212634;23;20026;-78
2022/12/16 02:44:10;;;;;;;17.63;10.73;;;;;;;-7.13;100.00;100429.59;6214697;23;20020;-77
2022/12/16 02:46:54;;;;;;;21.03;10.47;;;;;;;-7.15;100.00;100432.91;6212330;23;20019;-78
2022/12/16 02:49:24;;;;;;;24.17;11.80;;;;;;;-7.16;100.00;100427.75;6188538;23;20388;-78
2022/12/16 02:51:50;;;;;;;21.27;12.50;;;;;;;-7.16;100.00;100425.19;6237619;23;20048;-77
2022/12/16 02:54:18;;;;;;;23.47;12.27;;;;;;;-7.18;100.00;100421.72;6189235;23;20107;-78
2022/12/16 02:57:20;;;;;;;18.83;10.93;;;;;;;-7.18;100.00;100421.72;6216331;23;20050;-78
2022/12/16 03:00:04;;;;;;;20.03;11.57;;;;;;;-7.18;100.00;100421.72;6211629;23;20143;-77
2022/12/16 03:02:57;;;;;;;;;;;;;;;-7.18;100.00;100426.78;6211938;23;20016;-77
2022/12/16 03:05:35;;;;;;;23.83;12.37;;;;;;;-7.17;100.00;100431.06;6239547;23;19916;-78
2022/12/16 03:08:09;;;;;;;21.00;12.67;;;;;;;-7.17;100.00;100426.88;6213681;23;20020;-78
2022/12/16 03:10:47;;;;;;;21.88;10.88;;;;;;;-7.16;100.00;100427.75;6213891;23;20016;-78
2022/12/16 03:13:17;;;;;;;29.77;13.67;;;;;;;-7.17;100.00;100426.88;6213102;23;20040;-78
2022/12/16 03:15:45;;;;;;;27.70;14.10;;;;;;;-7.16;100.00;100427.75;6214179;23;20758;-78
2022/12/16 03:18:15;;;;;;;26.23;13.23;;;;;;;-7.17;100.00;100428.53;6215998;23;20035;-80
2022/12/16 03:21:00;;;;;;;19.83;11.30;;;;;;;-7.18;100.00;100434.44;6218403;23;20070;-77
2022/12/16 03:23:58;;;;;;;25.23;11.37;;;;;;;-7.22;100.00;100430.81;6219047;23;20454;-80
2022/12/16 03:26:53;;;;;;;20.70;11.37;;;;;;;-7.21;100.00;100435.13;6212537;23;20031;-78
2022/12/16 03:29:42;;;;;;;24.87;13.70;;;;;;;-7.21;100.00;100435.13;6220040;23;20040;-78
2022/12/16 03:32:20;;;;;;;23.10;11.93;;;;;;;-7.21;100.00;100421.50;6218543;23;20014;-79
2022/12/16 03:35:01;;;;;;;24.97;12.37;;;;;;;-7.21;100.00;100426.59;6248761;23;20043;-77
2022/12/16 03:37:33;;;;;;;23.90;11.87;;;;;;;-7.22;100.00;100435.91;6197777;23;20039;-77
2022/12/16 03:40:05;;;;;;;25.20;12.97;;;;;;;-7.23;100.00;100439.22;6223117;23;20023;-78
2022/12/16 03:42:33;;;;;;;22.53;13.40;;;;;;;-7.26;100.00;100446.69;6221330;23;20023;-78
2022/12/16 03:45:01;;;;;;;34.60;17.30;;;;;;;-7.27;100.00;100444.94;6222481;23;20075;-78
2022/12/16 03:47:31;;;;;;;26.37;14.57;;;;;;;-7.27;100.00;100444.94;6217966;23;20071;-78
2022/12/16 03:49:58;;;;;;;19.33;12.07;;;;;;;-7.26;100.00;100444.16;6222589;23;20107;-80
2022/12/16 03:52:25;;;;;;;22.13;12.93;;;;;;;-7.26;100.00;100444.16;6222784;23;20008;-78
2022/12/16 03:54:51;;;;;;;22.07;11.87;;;;;;;-7.27;100.00;100436.41;6223928;23;20009;-78
2022/12/16 03:57:18;;;;;;;23.53;11.90;;;;;;;-7.29;100.00;100435.44;6224239;23;20077;-80
2022/12/16 03:59:44;;;;;;;26.33;13.27;;;;;;;-7.31;100.00;100436.22;6222394;23;20043;-78
2022/12/16 04:02:11;;;;;;;18.23;12.17;;;;;;;-7.29;100.00;100435.44;6218212;23;20378;-77
2022/12/16 04:04:38;;;;;;;25.40;12.30;;;;;;;-7.31;100.00;100443.00;6218393;23;20024;-80
2022/12/16 04:07:31;;;;;;;21.23;11.23;;;;;;;-7.30;100.00;100437.09;6242793;22;20015;-79
2022/12/16 04:09:57;;;;;;;25.50;13.10;;;;;;;-7.31;100.00;100443.84;6219152;23;20023;-79
2022/12/16 04:26:12;;;;;;;18.13;10.90;;;;;;;-7.35;100.00;100449.56;6191091;23;20083;-79
2022/12/16 04:28:41;;;;;;;22.53;11.47;;;;;;;-7.32;100.00;100449.72;6188816;23;20099;-79
2022/12/16 04:31:10;;;;;;;20.97;12.13;;;;;;;-7.31;100.00;100454.03;6213539;23;20058;-78
